sensor_id;sensor_type;location;lat;lon;timestamp;temperature;humidity
16578;DHT22;8401;52.528;13.340;2022-12-05T00:03:56;4.10;99.90
16578;DHT22;8401;52.528;13.340;2022-12-05T00:06:23;4.20;99.90
16578;DHT22;8401;52.528;13.340;2022-12-05T00:08:49;4.30;99.90
16578;DHT22;8401;52.528;13.340;2022-12-05T00:11:20;4.30;99.90
16578;DHT22;8401;52.528;13.340;2022-12-05T00:13:47;4.20;99.90
16578;DHT22;8401;52.528;13.340;2022-12-05T00:16:15;4.10;99.90
16578;DHT22;8401;52.528;13.340;2022-12-05T00:18:41;4.10;99.90
16578;DHT22;8401;52.528;13.340;2022-12-05T00:21:12;4.10;99.90
16578;DHT22;8401;52.528;13.340;2022-12-05T00:23:39;4.30;99.90
16578;DHT22;8401;52.528;13.340;2022-12-05T00:26:05;4.30;99.90
16578;DHT22;8401;52.528;13.340;2022-12-05T00:28:32;4.40;99.90
16578;DHT22;8401;52.528;13.340;2022-12-05T00:31:03;4.20;99.90
16578;DHT22;8401;52.528;13.340;2022-12-05T00:33:29;3.90;99.90
16578;DHT22;8401;52.528;13.340;2022-12-05T00:35:55;3.80;99.90
16578;DHT22;8401;52.528;13.340;2022-12-05T00:38:20;3.80;99.90
16578;DHT22;8401;52.528;13.340;2022-12-05T00:40:46;3.80;99.90
16578;DHT22;8401;52.528;13.340;2022-12-05T00:43:11;4.10;99.90
16578;DHT22;8401;52.528;13.340;2022-12-05T00:45:37;4.00;99.90
16578;DHT22;8401;52.528;13.340;2022-12-05T00:48:03;4.10;99.90
16578;DHT22;8401;52.528;13.340;2022-12-05T00:50:28;4.20;99.90
16578;DHT22;8401;52.528;13.340;2022-12-05T00:52:54;4.40;99.90
16578;DHT22;8401;52.528;13.340;2022-12-05T00:55:20;4.30;99.90
16578;DHT22;8401;52.528;13.340;2022-12-05T00:57:45;4.00;99.90
16578;DHT22;8401;52.528;13.340;2022-12-05T01:00:11;4.20;99.90
16578;DHT22;8401;52.528;13.340;2022-12-05T01:02:37;4.20;99.90
16578;DHT22;8401;52.528;13.340;2022-12-05T01:05:03;4.30;99.90
16578;DHT22;8401;52.528;13.340;2022-12-05T01:07:28;4.30;99.90
16578;DHT22;8401;52.528;13.340;2022-12-05T01:09:54;4.30;99.90
16578;DHT22;8401;52.528;13.340;2022-12-05T01:12:20;4.40;99.90
16578;DHT22;8401;52.528;13.340;2022-12-05T01:14:45;4.40;99.90
16578;DHT22;8401;52.528;13.340;2022-12-05T01:17:11;4.20;99.90
16578;DHT22;8401;52.528;13.340;2022-12-05T01:19:36;4.00;99.90
16578;DHT22;8401;52.528;13.340;2022-12-05T01:22:02;4.20;99.90
16578;DHT22;8401;52.528;13.340;2022-12-05T01:24:28;4.20;99.90
16578;DHT22;8401;52.528;13.340;2022-12-05T01:26:55;4.20;99.90
16578;DHT22;8401;52.528;13.340;2022-12-05T01:29:22;4.00;99.90
16578;DHT22;8401;52.528;13.340;2022-12-05T01:31:49;4.10;99.90
16578;DHT22;8401;52.528;13.340;2022-12-05T01:34:16;4.00;99.90
16578;DHT22;8401;52.528;13.340;2022-12-05T01:36:43;4.10;99.90
16578;DHT22;8401;52.528;13.340;2022-12-05T01:39:09;4.30;99.90
16578;DHT22;8401;52.528;13.340;2022-12-05T01:41:38;4.50;99.90
16578;DHT22;8401;52.528;13.340;2022-12-05T01:46:39;4.40;99.90
16578;DHT22;8401;52.528;13.340;2022-12-05T01:49:14;4.20;99.90
16578;DHT22;8401;52.528;13.340;2022-12-05T01:51:45;4.30;99.90
16578;DHT22;8401;52.528;13.340;2022-12-05T01:54:11;4.30;99.90
16578;DHT22;8401;52.528;13.340;2022-12-05T01:56:40;4.40;99.90
16578;DHT22;8401;52.528;13.340;2022-12-05T01:59:08;4.50;99.90
16578;DHT22;8401;52.528;13.340;2022-12-05T02:01:36;4.60;99.90
16578;DHT22;8401;52.528;13.340;2022-12-05T02:04:02;4.50;99.90
16578;DHT22;8401;52.528;13.340;2022-12-05T02:06:29;4.30;99.90
16578;DHT22;8401;52.528;13.340;2022-12-05T02:08:55;4.20;99.90
16578;DHT22;8401;52.528;13.340;2022-12-05T02:11:22;4.40;99.90
16578;DHT22;8401;52.528;13.340;2022-12-05T02:27:24;4.30;99.90
16578;DHT22;8401;52.528;13.340;2022-12-05T02:29:56;4.10;99.90
16578;DHT22;8401;52.528;13.340;2022-12-05T02:32:46;4.30;99.90
16578;DHT22;8401;52.528;13.340;2022-12-05T02:35:37;4.40;99.90
16578;DHT22;8401;52.528;13.340;2022-12-05T02:38:29;4.40;99.90
16578;DHT22;8401;52.528;13.340;2022-12-05T02:41:10;4.40;99.90
16578;DHT22;8401;52.528;13.340;2022-12-05T02:46:20;4.40;99.90
16578;DHT22;8401;52.528;13.340;2022-12-05T02:48:47;4.40;99.90
16578;DHT22;8401;52.528;13.340;2022-12-05T02:51:23;4.40;99.90
16578;DHT22;8401;52.528;13.340;2022-12-05T02:53:51;4.40;99.90
16578;DHT22;8401;52.528;13.340;2022-12-05T02:56:20;4.40;99.90
16578;DHT22;8401;52.528;13.340;2022-12-05T02:58:52;4.40;99.90
16578;DHT22;8401;52.528;13.340;2022-12-05T03:01:21;4.10;99.90
16578;DHT22;8401;52.528;13.340;2022-12-05T03:03:47;4.20;99.90
16578;DHT22;8401;52.528;13.340;2022-12-05T03:06:16;4.20;99.90
16578;DHT22;8401;52.528;13.340;2022-12-05T03:09:08;4.00;99.90
16578;DHT22;8401;52.528;13.340;2022-12-05T03:11:51;4.10;99.90
16578;DHT22;8401;52.528;13.340;2022-12-05T03:14:28;4.40;99.90
16578;DHT22;8401;52.528;13.340;2022-12-05T03:17:03;4.50;99.90
16578;DHT22;8401;52.528;13.340;2022-12-05T03:19:36;4.30;99.90
16578;DHT22;8401;52.528;13.340;2022-12-05T03:24:54;4.40;99.90
16578;DHT22;8401;52.528;13.340;2022-12-05T03:27:25;4.40;99.90
16578;DHT22;8401;52.528;13.340;2022-12-05T03:35:44;4.40;99.90
16578;DHT22;8401;52.528;13.340;2022-12-05T03:38:24;4.40;99.90
16578;DHT22;8401;52.528;13.340;2022-12-05T03:43:38;4.40;99.90
16578;DHT22;8401;52.528;13.340;2022-12-05T03:46:23;4.50;99.90
16578;DHT22;8401;52.528;13.340;2022-12-05T03:48:57;4.30;99.90
16578;DHT22;8401;52.528;13.340;2022-12-05T03:51:30;4.40;99.90
16578;DHT22;8401;52.528;13.340;2022-12-05T03:54:04;4.50;99.90
16578;DHT22;8401;52.528;13.340;2022-12-05T03:56:38;4.40;99.90
16578;DHT22;8401;52.528;13.340;2022-12-05T03:59:24;4.40;99.90
16578;DHT22;8401;52.528;13.340;2022-12-05T04:01:52;4.30;99.90
16578;DHT22;8401;52.528;13.340;2022-12-05T04:04:32;4.40;99.90
16578;DHT22;8401;52.528;13.340;2022-12-05T04:07:02;4.50;99.90
16578;DHT22;8401;52.528;13.340;2022-12-05T04:09:41;4.30;99.90
16578;DHT22;8401;52.528;13.340;2022-12-05T04:12:14;4.20;99.90
16578;DHT22;8401;52.528;13.340;2022-12-05T04:14:44;4.30;99.90
16578;DHT22;8401;52.528;13.340;2022-12-05T04:20:34;4.50;99.90
16578;DHT22;8401;52.528;13.340;2022-12-05T04:23:21;4.40;99.90
16578;DHT22;8401;52.528;13.340;2022-12-05T04:28:36;4.50;99.90
16578;DHT22;8401;52.528;13.340;2022-12-05T04:31:17;4.50;99.90
16578;DHT22;8401;52.528;13.340;2022-12-05T04:33:51;4.50;99.90
16578;DHT22;8401;52.528;13.340;2022-12-05T04:38:51;4.50;99.90
16578;DHT22;8401;52.528;13.340;2022-12-05T04:41:31;4.50;99.90
16578;DHT22;8401;52.528;13.340;2022-12-05T04:44:03;4.40;99.90
16578;DHT22;8401;52.528;13.340;2022-12-05T04:46:32;4.30;99.90
16578;DHT22;8401;52.528;13.340;2022-12-05T04:49:01;4.40;99.90
16578;DHT22;8401;52.528;13.340;2022-12-05T04:51:29;4.40;99.90
16578;DHT22;8401;52.528;13.340;2022-12-05T04:54:02;4.50;99.90
16578;DHT22;8401;52.528;13.340;2022-12-05T04:56:30;4.50;99.90
16578;DHT22;8401;52.528;13.340;2022-12-05T04:58:58;4.50;99.90
16578;DHT22;8401;52.528;13.340;2022-12-05T05:01:33;4.50;99.90
16578;DHT22;8401;52.528;13.340;2022-12-05T05:04:18;4.50;99.90
16578;DHT22;8401;52.528;13.340;2022-12-05T05:06:46;4.40;99.90
16578;DHT22;8401;52.528;13.340;2022-12-05T05:09:11;4.50;99.90
16578;DHT22;8401;52.528;13.340;2022-12-05T05:11:37;4.40;99.90
16578;DHT22;8401;52.528;13.340;2022-12-05T05:14:03;4.30;99.90
16578;DHT22;8401;52.528;13.340;2022-12-05T05:16:35;4.40;99.90
16578;DHT22;8401;52.528;13.340;2022-12-05T05:19:02;4.40;99.90
16578;DHT22;8401;52.528;13.340;2022-12-05T05:21:30;4.40;99.90
16578;DHT22;8401;52.528;13.340;2022-12-05T05:23:57;4.40;99.90
16578;DHT22;8401;52.528;13.340;2022-12-05T05:26:24;4.50;99.90
16578;DHT22;8401;52.528;13.340;2022-12-05T05:28:50;4.50;99.90
16578;DHT22;8401;52.528;13.340;2022-12-05T05:31:17;4.40;99.90
16578;DHT22;8401;52.528;13.340;2022-12-05T05:33:46;4.40;99.90
16578;DHT22;8401;52.528;13.340;2022-12-05T05:36:13;4.40;99.90
16578;DHT22;8401;52.528;13.340;2022-12-05T05:38:50;4.40;99.90
16578;DHT22;8401;52.528;13.340;2022-12-05T05:41:22;4.50;99.90
16578;DHT22;8401;52.528;13.340;2022-12-05T05:43:48;4.50;99.90
16578;DHT22;8401;52.528;13.340;2022-12-05T05:46:16;4.50;99.90
16578;DHT22;8401;52.528;13.340;2022-12-05T05:48:42;4.60;99.90
16578;DHT22;8401;52.528;13.340;2022-12-05T05:51:10;4.40;99.90
16578;DHT22;8401;52.528;13.340;2022-12-05T05:53:36;4.20;99.90
16578;DHT22;8401;52.528;13.340;2022-12-05T05:56:03;4.40;99.90
16578;DHT22;8401;52.528;13.340;2022-12-05T05:58:30;4.40;99.90
16578;DHT22;8401;52.528;13.340;2022-12-05T06:01:23;4.50;99.90
16578;DHT22;8401;52.528;13.340;2022-12-05T06:03:48;4.50;99.90
16578;DHT22;8401;52.528;13.340;2022-12-05T06:06:15;4.40;99.90
16578;DHT22;8401;52.528;13.340;2022-12-05T06:08:42;4.40;99.90
16578;DHT22;8401;52.528;13.340;2022-12-05T06:11:11;4.40;99.90
16578;DHT22;8401;52.528;13.340;2022-12-05T06:13:37;4.40;99.90
16578;DHT22;8401;52.528;13.340;2022-12-05T06:16:07;4.40;99.90
16578;DHT22;8401;52.528;13.340;2022-12-05T06:18:34;4.50;99.90
16578;DHT22;8401;52.528;13.340;2022-12-05T06:20:59;4.50;99.90
16578;DHT22;8401;52.528;13.340;2022-12-05T06:23:26;4.50;99.90
16578;DHT22;8401;52.528;13.340;2022-12-05T06:25:53;4.50;99.90
16578;DHT22;8401;52.528;13.340;2022-12-05T06:28:21;4.40;99.90
16578;DHT22;8401;52.528;13.340;2022-12-05T06:30:47;4.30;99.90
16578;DHT22;8401;52.528;13.340;2022-12-05T06:33:12;4.40;99.90
16578;DHT22;8401;52.528;13.340;2022-12-05T06:35:38;4.40;99.90
16578;DHT22;8401;52.528;13.340;2022-12-05T06:38:05;4.40;99.90
16578;DHT22;8401;52.528;13.340;2022-12-05T06:40:32;4.60;99.90
16578;DHT22;8401;52.528;13.340;2022-12-05T06:42:57;4.70;99.90
16578;DHT22;8401;52.528;13.340;2022-12-05T06:45:23;4.80;99.90
16578;DHT22;8401;52.528;13.340;2022-12-05T06:47:52;4.80;99.90
16578;DHT22;8401;52.528;13.340;2022-12-05T06:50:18;4.80;99.90
16578;DHT22;8401;52.528;13.340;2022-12-05T06:52:44;4.70;99.90
16578;DHT22;8401;52.528;13.340;2022-12-05T06:55:09;4.80;99.90
16578;DHT22;8401;52.528;13.340;2022-12-05T06:57:35;4.70;99.90
16578;DHT22;8401;52.528;13.340;2022-12-05T07:00:01;4.60;99.90
16578;DHT22;8401;52.528;13.340;2022-12-05T07:02:49;4.60;99.90
16578;DHT22;8401;52.528;13.340;2022-12-05T07:05:15;4.60;99.90
16578;DHT22;8401;52.528;13.340;2022-12-05T07:07:40;4.70;99.90
16578;DHT22;8401;52.528;13.340;2022-12-05T07:10:06;4.60;99.90
16578;DHT22;8401;52.528;13.340;2022-12-05T07:12:32;4.60;99.90
16578;DHT22;8401;52.528;13.340;2022-12-05T07:14:58;4.60;99.90
16578;DHT22;8401;52.528;13.340;2022-12-05T07:17:24;4.60;99.90
16578;DHT22;8401;52.528;13.340;2022-12-05T07:19:51;4.60;99.90
16578;DHT22;8401;52.528;13.340;2022-12-05T07:22:18;4.60;99.90
16578;DHT22;8401;52.528;13.340;2022-12-05T07:24:45;4.60;99.90
16578;DHT22;8401;52.528;13.340;2022-12-05T07:27:11;4.50;99.90
16578;DHT22;8401;52.528;13.340;2022-12-05T07:29:37;4.60;99.90
16578;DHT22;8401;52.528;13.340;2022-12-05T07:32:04;4.60;99.90
16578;DHT22;8401;52.528;13.340;2022-12-05T07:34:29;4.70;99.90
16578;DHT22;8401;52.528;13.340;2022-12-05T07:36:55;4.60;99.90
16578;DHT22;8401;52.528;13.340;2022-12-05T07:39:21;4.60;99.90
16578;DHT22;8401;52.528;13.340;2022-12-05T07:41:46;4.60;99.90
16578;DHT22;8401;52.528;13.340;2022-12-05T07:44:12;4.60;99.90
16578;DHT22;8401;52.528;13.340;2022-12-05T07:46:38;4.60;99.90
16578;DHT22;8401;52.528;13.340;2022-12-05T07:49:04;4.40;99.90
16578;DHT22;8401;52.528;13.340;2022-12-05T07:51:30;4.50;99.90
16578;DHT22;8401;52.528;13.340;2022-12-05T07:53:57;4.50;99.90
16578;DHT22;8401;52.528;13.340;2022-12-05T07:56:23;4.50;99.90
16578;DHT22;8401;52.528;13.340;2022-12-05T07:58:49;4.60;99.90
16578;DHT22;8401;52.528;13.340;2022-12-05T08:01:19;4.60;99.90
16578;DHT22;8401;52.528;13.340;2022-12-05T08:03:45;4.60;99.90
16578;DHT22;8401;52.528;13.340;2022-12-05T08:09:07;4.60;99.90
16578;DHT22;8401;52.528;13.340;2022-12-05T08:11:33;4.60;99.90
16578;DHT22;8401;52.528;13.340;2022-12-05T08:14:10;4.60;99.90
16578;DHT22;8401;52.528;13.340;2022-12-05T08:16:36;4.60;99.90
16578;DHT22;8401;52.528;13.340;2022-12-05T08:19:05;4.60;99.90
16578;DHT22;8401;52.528;13.340;2022-12-05T08:21:31;4.60;99.90
16578;DHT22;8401;52.528;13.340;2022-12-05T08:23:57;4.50;99.90
16578;DHT22;8401;52.528;13.340;2022-12-05T08:26:59;4.50;99.90
16578;DHT22;8401;52.528;13.340;2022-12-05T08:29:25;4.70;99.90
16578;DHT22;8401;52.528;13.340;2022-12-05T08:31:51;4.70;99.90
16578;DHT22;8401;52.528;13.340;2022-12-05T08:34:19;4.70;99.90
16578;DHT22;8401;52.528;13.340;2022-12-05T08:36:46;4.60;99.90
16578;DHT22;8401;52.528;13.340;2022-12-05T08:39:14;4.60;99.90
16578;DHT22;8401;52.528;13.340;2022-12-05T08:41:45;4.50;99.90
16578;DHT22;8401;52.528;13.340;2022-12-05T08:44:12;4.50;99.90
16578;DHT22;8401;52.528;13.340;2022-12-05T08:46:42;4.60;99.90
16578;DHT22;8401;52.528;13.340;2022-12-05T08:49:10;4.60;99.90
16578;DHT22;8401;52.528;13.340;2022-12-05T08:51:36;4.60;99.90
16578;DHT22;8401;52.528;13.340;2022-12-05T08:54:03;4.60;99.90
16578;DHT22;8401;52.528;13.340;2022-12-05T08:56:29;4.60;99.90
16578;DHT22;8401;52.528;13.340;2022-12-05T08:58:55;4.60;99.90
16578;DHT22;8401;52.528;13.340;2022-12-05T09:01:21;4.60;99.90
16578;DHT22;8401;52.528;13.340;2022-12-05T09:03:47;4.60;99.90
16578;DHT22;8401;52.528;13.340;2022-12-05T09:06:18;4.60;99.90
16578;DHT22;8401;52.528;13.340;2022-12-05T09:08:45;4.60;99.90
16578;DHT22;8401;52.528;13.340;2022-12-05T09:11:17;4.60;99.90
16578;DHT22;8401;52.528;13.340;2022-12-05T09:13:43;4.60;99.90
16578;DHT22;8401;52.528;13.340;2022-12-05T09:16:11;4.50;99.90
16578;DHT22;8401;52.528;13.340;2022-12-05T09:18:38;4.60;99.90
16578;DHT22;8401;52.528;13.340;2022-12-05T09:21:06;4.50;99.90
16578;DHT22;8401;52.528;13.340;2022-12-05T09:23:32;4.50;99.90
16578;DHT22;8401;52.528;13.340;2022-12-05T09:25:57;4.50;99.90
16578;DHT22;8401;52.528;13.340;2022-12-05T09:28:27;4.50;99.90
16578;DHT22;8401;52.528;13.340;2022-12-05T09:31:01;4.60;99.90
16578;DHT22;8401;52.528;13.340;2022-12-05T09:33:28;4.60;99.90
16578;DHT22;8401;52.528;13.340;2022-12-05T09:36:05;4.50;99.90
16578;DHT22;8401;52.528;13.340;2022-12-05T09:38:33;4.60;99.90
16578;DHT22;8401;52.528;13.340;2022-12-05T09:41:38;4.70;99.90
16578;DHT22;8401;52.528;13.340;2022-12-05T09:47:31;4.60;99.90
16578;DHT22;8401;52.528;13.340;2022-12-05T09:50:12;4.60;99.90
16578;DHT22;8401;52.528;13.340;2022-12-05T09:52:59;4.60;99.90
16578;DHT22;8401;52.528;13.340;2022-12-05T09:58:02;4.60;99.90
16578;DHT22;8401;52.528;13.340;2022-12-05T10:00:29;4.60;99.90
16578;DHT22;8401;52.528;13.340;2022-12-05T10:15:53;4.70;99.90
16578;DHT22;8401;52.528;13.340;2022-12-05T10:18:39;4.60;99.90
16578;DHT22;8401;52.528;13.340;2022-12-05T10:26:15;4.70;99.90
16578;DHT22;8401;52.528;13.340;2022-12-05T10:29:08;4.80;99.90
16578;DHT22;8401;52.528;13.340;2022-12-05T10:31:37;4.80;99.90
16578;DHT22;8401;52.528;13.340;2022-12-05T10:34:39;4.80;99.90
16578;DHT22;8401;52.528;13.340;2022-12-05T10:37:14;4.70;99.90
16578;DHT22;8401;52.528;13.340;2022-12-05T10:39:41;4.70;99.90
16578;DHT22;8401;52.528;13.340;2022-12-05T10:42:12;4.70;99.90
16578;DHT22;8401;52.528;13.340;2022-12-05T10:44:43;4.70;99.90
16578;DHT22;8401;52.528;13.340;2022-12-05T10:47:10;4.70;99.90
16578;DHT22;8401;52.528;13.340;2022-12-05T10:49:37;4.70;99.90
16578;DHT22;8401;52.528;13.340;2022-12-05T10:52:03;4.60;99.90
16578;DHT22;8401;52.528;13.340;2022-12-05T10:54:31;4.70;99.90
16578;DHT22;8401;52.528;13.340;2022-12-05T10:57:20;4.80;99.90
16578;DHT22;8401;52.528;13.340;2022-12-05T10:59:46;4.70;99.90
16578;DHT22;8401;52.528;13.340;2022-12-05T11:02:32;4.70;99.90
16578;DHT22;8401;52.528;13.340;2022-12-05T11:04:58;4.70;99.90
16578;DHT22;8401;52.528;13.340;2022-12-05T11:10:34;4.70;99.90
16578;DHT22;8401;52.528;13.340;2022-12-05T11:13:00;4.60;99.90
16578;DHT22;8401;52.528;13.340;2022-12-05T11:15:30;4.70;99.90
16578;DHT22;8401;52.528;13.340;2022-12-05T11:18:17;4.80;99.90
16578;DHT22;8401;52.528;13.340;2022-12-05T11:20:44;4.80;99.90
16578;DHT22;8401;52.528;13.340;2022-12-05T11:23:22;4.70;99.90
16578;DHT22;8401;52.528;13.340;2022-12-05T11:25:48;4.70;99.90
16578;DHT22;8401;52.528;13.340;2022-12-05T11:33:28;4.80;99.90
16578;DHT22;8401;52.528;13.340;2022-12-05T11:38:34;4.80;99.90
16578;DHT22;8401;52.528;13.340;2022-12-05T11:41:35;4.80;99.90
16578;DHT22;8401;52.528;13.340;2022-12-05T11:57:11;4.80;99.90
16578;DHT22;8401;52.528;13.340;2022-12-05T12:08:24;4.70;99.90
16578;DHT22;8401;52.528;13.340;2022-12-05T12:11:11;4.70;99.90
16578;DHT22;8401;52.528;13.340;2022-12-05T12:13:59;4.80;99.90
16578;DHT22;8401;52.528;13.340;2022-12-05T12:33:38;5.10;99.90
16578;DHT22;8401;52.528;13.340;2022-12-05T12:36:17;5.10;99.90
16578;DHT22;8401;52.528;13.340;2022-12-05T12:38:57;5.00;99.90
16578;DHT22;8401;52.528;13.340;2022-12-05T12:42:03;5.00;99.90
16578;DHT22;8401;52.528;13.340;2022-12-05T12:47:38;5.20;99.90
16578;DHT22;8401;52.528;13.340;2022-12-05T13:02:08;5.00;99.90
16578;DHT22;8401;52.528;13.340;2022-12-05T13:04:51;4.90;99.90
16578;DHT22;8401;52.528;13.340;2022-12-05T13:07:25;4.90;99.90
16578;DHT22;8401;52.528;13.340;2022-12-05T13:09:59;4.90;99.90
16578;DHT22;8401;52.528;13.340;2022-12-05T13:12:29;5.00;99.90
16578;DHT22;8401;52.528;13.340;2022-12-05T13:15:18;5.10;99.90
16578;DHT22;8401;52.528;13.340;2022-12-05T13:17:49;5.10;99.90
16578;DHT22;8401;52.528;13.340;2022-12-05T13:20:18;5.10;99.90
16578;DHT22;8401;52.528;13.340;2022-12-05T13:22:51;5.10;99.90
16578;DHT22;8401;52.528;13.340;2022-12-05T13:25:20;5.00;99.90
16578;DHT22;8401;52.528;13.340;2022-12-05T13:27:57;5.10;99.90
16578;DHT22;8401;52.528;13.340;2022-12-05T13:33:35;5.20;99.90
16578;DHT22;8401;52.528;13.340;2022-12-05T13:36:17;5.10;99.90
16578;DHT22;8401;52.528;13.340;2022-12-05T13:45:41;5.20;99.90
16578;DHT22;8401;52.528;13.340;2022-12-05T13:48:21;5.10;99.90
16578;DHT22;8401;52.528;13.340;2022-12-05T13:51:01;5.10;99.90
16578;DHT22;8401;52.528;13.340;2022-12-05T13:53:35;5.30;99.90
16578;DHT22;8401;52.528;13.340;2022-12-05T13:56:27;5.30;99.90
16578;DHT22;8401;52.528;13.340;2022-12-05T13:59:09;5.30;99.90
16578;DHT22;8401;52.528;13.340;2022-12-05T14:01:49;5.30;99.90
16578;DHT22;8401;52.528;13.340;2022-12-05T14:04:44;5.30;99.90
16578;DHT22;8401;52.528;13.340;2022-12-05T14:19:35;5.10;99.90
16578;DHT22;8401;52.528;13.340;2022-12-05T14:22:45;5.10;99.90
16578;DHT22;8401;52.528;13.340;2022-12-05T14:25:41;5.20;99.90
16578;DHT22;8401;52.528;13.340;2022-12-05T14:31:04;5.20;99.90
16578;DHT22;8401;52.528;13.340;2022-12-05T14:33:41;5.20;99.90
16578;DHT22;8401;52.528;13.340;2022-12-05T14:36:12;5.20;99.90
16578;DHT22;8401;52.528;13.340;2022-12-05T14:38:39;5.20;99.90
16578;DHT22;8401;52.528;13.340;2022-12-05T14:41:26;5.10;99.90
16578;DHT22;8401;52.528;13.340;2022-12-05T14:43:56;5.20;99.90
16578;DHT22;8401;52.528;13.340;2022-12-05T14:46:25;5.20;99.90
16578;DHT22;8401;52.528;13.340;2022-12-05T14:48:54;5.20;99.90
16578;DHT22;8401;52.528;13.340;2022-12-05T14:54:04;5.00;99.90
16578;DHT22;8401;52.528;13.340;2022-12-05T14:56:33;5.20;99.90
16578;DHT22;8401;52.528;13.340;2022-12-05T14:59:04;5.30;99.90
16578;DHT22;8401;52.528;13.340;2022-12-05T15:01:53;5.30;99.90
16578;DHT22;8401;52.528;13.340;2022-12-05T15:12:05;5.30;99.90
16578;DHT22;8401;52.528;13.340;2022-12-05T15:20:20;5.20;99.90
16578;DHT22;8401;52.528;13.340;2022-12-05T15:22:47;5.00;99.90
16578;DHT22;8401;52.528;13.340;2022-12-05T15:37:22;5.40;99.90
16578;DHT22;8401;52.528;13.340;2022-12-05T15:40:07;5.30;99.90
16578;DHT22;8401;52.528;13.340;2022-12-05T15:50:37;5.40;99.90
16578;DHT22;8401;52.528;13.340;2022-12-05T15:53:17;5.30;99.90
16578;DHT22;8401;52.528;13.340;2022-12-05T15:56:37;5.30;99.90
16578;DHT22;8401;52.528;13.340;2022-12-05T16:01:49;5.30;99.90
16578;DHT22;8401;52.528;13.340;2022-12-05T16:04:29;5.40;99.90
16578;DHT22;8401;52.528;13.340;2022-12-05T16:06:58;5.40;99.90
16578;DHT22;8401;52.528;13.340;2022-12-05T16:09:30;5.40;99.90
16578;DHT22;8401;52.528;13.340;2022-12-05T16:12:02;5.40;99.90
16578;DHT22;8401;52.528;13.340;2022-12-05T16:14:32;5.30;99.90
16578;DHT22;8401;52.528;13.340;2022-12-05T16:16:59;5.30;99.90
16578;DHT22;8401;52.528;13.340;2022-12-05T16:19:27;5.40;99.90
16578;DHT22;8401;52.528;13.340;2022-12-05T16:22:06;5.40;99.90
16578;DHT22;8401;52.528;13.340;2022-12-05T16:24:39;5.40;99.90
16578;DHT22;8401;52.528;13.340;2022-12-05T16:32:40;5.10;99.90
16578;DHT22;8401;52.528;13.340;2022-12-05T16:35:35;5.30;99.90
16578;DHT22;8401;52.528;13.340;2022-12-05T16:38:23;5.30;99.90
16578;DHT22;8401;52.528;13.340;2022-12-05T16:48:35;5.30;99.90
16578;DHT22;8401;52.528;13.340;2022-12-05T16:53:36;5.20;99.90
16578;DHT22;8401;52.528;13.340;2022-12-05T16:56:05;5.20;99.90
16578;DHT22;8401;52.528;13.340;2022-12-05T16:58:33;5.20;99.90
16578;DHT22;8401;52.528;13.340;2022-12-05T17:01:06;5.30;99.90
16578;DHT22;8401;52.528;13.340;2022-12-05T17:03:33;5.20;99.90
16578;DHT22;8401;52.528;13.340;2022-12-05T17:05:59;5.20;99.90
16578;DHT22;8401;52.528;13.340;2022-12-05T17:08:25;5.10;99.90
16578;DHT22;8401;52.528;13.340;2022-12-05T17:10:51;5.00;99.90
16578;DHT22;8401;52.528;13.340;2022-12-05T17:13:18;5.00;99.90
16578;DHT22;8401;52.528;13.340;2022-12-05T17:15:44;5.00;99.90
16578;DHT22;8401;52.528;13.340;2022-12-05T17:18:18;4.90;99.90
16578;DHT22;8401;52.528;13.340;2022-12-05T17:20:53;4.90;99.90
16578;DHT22;8401;52.528;13.340;2022-12-05T17:23:20;5.00;99.90
16578;DHT22;8401;52.528;13.340;2022-12-05T17:25:53;5.00;99.90
16578;DHT22;8401;52.528;13.340;2022-12-05T17:28:19;5.10;99.90
16578;DHT22;8401;52.528;13.340;2022-12-05T17:30:45;5.20;99.90
16578;DHT22;8401;52.528;13.340;2022-12-05T17:33:12;5.40;99.90
16578;DHT22;8401;52.528;13.340;2022-12-05T17:35:39;5.20;99.90
16578;DHT22;8401;52.528;13.340;2022-12-05T17:38:05;5.10;99.90
16578;DHT22;8401;52.528;13.340;2022-12-05T17:40:31;5.10;99.90
16578;DHT22;8401;52.528;13.340;2022-12-05T17:42:57;5.10;99.90
16578;DHT22;8401;52.528;13.340;2022-12-05T17:45:26;5.10;99.90
16578;DHT22;8401;52.528;13.340;2022-12-05T17:47:58;5.10;99.90
16578;DHT22;8401;52.528;13.340;2022-12-05T17:50:25;5.10;99.90
16578;DHT22;8401;52.528;13.340;2022-12-05T17:52:54;5.10;99.90
16578;DHT22;8401;52.528;13.340;2022-12-05T17:55:27;5.10;99.90
16578;DHT22;8401;52.528;13.340;2022-12-05T17:57:53;5.10;99.90
16578;DHT22;8401;52.528;13.340;2022-12-05T18:00:21;5.10;99.90
16578;DHT22;8401;52.528;13.340;2022-12-05T18:02:47;5.10;99.90
16578;DHT22;8401;52.528;13.340;2022-12-05T18:05:13;5.10;99.90
16578;DHT22;8401;52.528;13.340;2022-12-05T18:07:41;5.10;99.90
16578;DHT22;8401;52.528;13.340;2022-12-05T18:10:09;5.10;99.90
16578;DHT22;8401;52.528;13.340;2022-12-05T18:12:36;5.20;99.90
16578;DHT22;8401;52.528;13.340;2022-12-05T18:15:02;5.20;99.90
16578;DHT22;8401;52.528;13.340;2022-12-05T18:17:29;5.20;99.90
16578;DHT22;8401;52.528;13.340;2022-12-05T18:19:55;5.20;99.90
16578;DHT22;8401;52.528;13.340;2022-12-05T18:22:25;5.20;99.90
16578;DHT22;8401;52.528;13.340;2022-12-05T18:24:52;5.30;99.90
16578;DHT22;8401;52.528;13.340;2022-12-05T18:27:19;5.30;99.90
16578;DHT22;8401;52.528;13.340;2022-12-05T18:29:48;5.20;99.90
16578;DHT22;8401;52.528;13.340;2022-12-05T18:32:15;5.20;99.90
16578;DHT22;8401;52.528;13.340;2022-12-05T18:34:41;5.20;99.90
16578;DHT22;8401;52.528;13.340;2022-12-05T18:37:07;5.20;99.90
16578;DHT22;8401;52.528;13.340;2022-12-05T18:39:33;5.20;99.90
16578;DHT22;8401;52.528;13.340;2022-12-05T18:41:58;5.30;99.90
16578;DHT22;8401;52.528;13.340;2022-12-05T18:44:24;5.40;99.90
16578;DHT22;8401;52.528;13.340;2022-12-05T18:46:50;5.30;99.90
16578;DHT22;8401;52.528;13.340;2022-12-05T18:49:15;5.30;99.90
16578;DHT22;8401;52.528;13.340;2022-12-05T18:51:41;5.20;99.90
16578;DHT22;8401;52.528;13.340;2022-12-05T18:54:07;5.30;99.90
16578;DHT22;8401;52.528;13.340;2022-12-05T18:56:34;5.20;99.90
16578;DHT22;8401;52.528;13.340;2022-12-05T18:59:01;5.20;99.90
16578;DHT22;8401;52.528;13.340;2022-12-05T19:01:29;5.10;99.90
16578;DHT22;8401;52.528;13.340;2022-12-05T19:03:56;5.10;99.90
16578;DHT22;8401;52.528;13.340;2022-12-05T19:06:25;5.10;99.90
16578;DHT22;8401;52.528;13.340;2022-12-05T19:08:56;5.00;99.90
16578;DHT22;8401;52.528;13.340;2022-12-05T19:11:23;5.00;99.90
16578;DHT22;8401;52.528;13.340;2022-12-05T19:13:56;4.90;99.90
16578;DHT22;8401;52.528;13.340;2022-12-05T19:16:22;5.00;99.90
16578;DHT22;8401;52.528;13.340;2022-12-05T19:18:52;5.00;99.90
16578;DHT22;8401;52.528;13.340;2022-12-05T19:21:19;5.00;99.90
16578;DHT22;8401;52.528;13.340;2022-12-05T19:23:44;5.00;99.90
16578;DHT22;8401;52.528;13.340;2022-12-05T19:26:10;5.00;99.90
16578;DHT22;8401;52.528;13.340;2022-12-05T19:28:36;5.00;99.90
16578;DHT22;8401;52.528;13.340;2022-12-05T19:31:08;4.90;99.90
16578;DHT22;8401;52.528;13.340;2022-12-05T19:33:39;4.90;99.90
16578;DHT22;8401;52.528;13.340;2022-12-05T19:36:08;4.90;99.90
16578;DHT22;8401;52.528;13.340;2022-12-05T19:38:36;4.80;99.90
16578;DHT22;8401;52.528;13.340;2022-12-05T19:41:03;4.80;99.90